SCVM 231300Z 33006KT 6000 OVC010 13/11 Q1014